Time;durP1;ratioP1;P1;durP2;ratioP2;P2;SDS_P1;SDS_P2;PMS_P1;PMS_P2;Temp;Humidity;BMP_temperature;BMP_pressure;BME280_temperature;BME280_humidity;BME280_pressure;Samples;Min_cycle;Max_cycle;Signal;HPM_P1;HPM_P2
2022/12/16 00:00:16;;;;;;;15.18;8.43;;;230.60;2252.80;;;;;;5059270;28;19951;-82
2022/12/16 00:02:42;;;;;;;15.90;7.88;;;230.60;2252.80;;;;;;5053999;28;20508;-82
2022/12/16 00:05:08;;;;;;;15.07;8.68;;;230.50;2252.80;;;;;;5038153;28;20112;-82
2022/12/16 00:07:34;;;;;;;17.92;9.45;;;230.60;2252.80;;;;;;5037916;28;20094;-82
2022/12/16 00:10:00;;;;;;;16.08;8.48;;;230.50;2252.80;;;;;;5054239;28;20033;-81
2022/12/16 00:12:25;;;;;;;;;;;230.60;2252.80;;;;;;5065194;28;20029;-82
2022/12/16 00:14:51;;;;;;;13.35;7.18;;;230.60;2252.80;;;;;;5071435;28;19917;-82
2022/12/16 00:17:17;;;;;;;18.10;7.53;;;230.60;2252.80;;;;;;5039433;28;20566;-83
2022/12/16 00:19:43;;;;;;;;;;;230.60;2252.80;;;;;;5055375;28;20025;-83
2022/12/16 00:22:09;;;;;;;12.48;6.78;;;230.60;2252.80;;;;;;5037948;28;19909;-81
2022/12/16 00:24:34;;;;;;;;;;;230.60;2252.80;;;;;;5057645;28;20037;-81
2022/12/16 00:27:00;;;;;;;16.55;7.82;;;230.70;2252.80;;;;;;5035095;28;19921;-80
2022/12/16 00:29:25;;;;;;;;;;;230.60;2252.80;;;;;;5057742;28;20045;-80
2022/12/16 00:31:51;;;;;;;14.55;8.20;;;230.70;2252.80;;;;;;5043084;28;19905;-82
2022/12/16 00:34:17;;;;;;;;;;;230.60;2252.80;;;;;;5058800;28;20611;-81
2022/12/16 00:36:42;;;;;;;14.50;8.40;;;230.70;2252.80;;;;;;5037536;28;19912;-81
2022/12/16 00:39:09;;;;;;;;;;;230.70;2252.80;;;;;;5053836;28;20389;-82
2022/12/16 00:41:35;;;;;;;13.70;7.35;;;230.70;2252.80;;;;;;5056042;28;19995;-83
2022/12/16 00:44:01;;;;;;;14.27;8.65;;;230.80;2252.80;;;;;;5054092;28;20553;-82
2022/12/16 00:46:27;;;;;;;15.15;8.57;;;230.80;2252.80;;;;;;5040922;28;20405;-82
2022/12/16 00:48:53;;;;;;;14.20;7.93;;;230.80;2252.80;;;;;;5041027;28;20033;-82
2022/12/16 00:51:18;;;;;;;;;;;230.90;2252.80;;;;;;5031905;28;20028;-82
2022/12/16 00:53:44;;;;;;;16.17;9.00;;;230.70;2252.80;;;;;;5058782;28;19913;-82
2022/12/16 00:56:13;;;;;;;;;;;230.90;2252.80;;;;;;5045242;28;20033;-82
2022/12/16 00:58:40;;;;;;;14.45;7.43;;;230.90;2252.80;;;;;;5040772;28;20330;-81
2022/12/16 01:01:06;;;;;;;16.70;7.35;;;230.90;2252.80;;;;;;5054442;28;20047;-83
2022/12/16 01:03:32;;;;;;;10.40;6.88;;;230.90;2252.80;;;;;;5048495;28;20540;-82
2022/12/16 01:05:57;;;;;;;;;;;231.10;2252.80;;;;;;5053577;28;20125;-82
2022/12/16 01:08:23;;;;;;;12.95;7.43;;;230.90;2252.80;;;;;;5055487;28;19932;-82
2022/12/16 01:10:52;;;;;;;;;;;230.90;2252.80;;;;;;5047222;28;20029;-82
2022/12/16 01:13:18;;;;;;;12.90;6.88;;;230.90;2252.80;;;;;;5022536;28;19916;-82
2022/12/16 01:15:44;;;;;;;12.82;6.35;;;230.90;2252.80;;;;;;5053461;28;20134;-83
2022/12/16 01:18:10;;;;;;;13.02;7.00;;;230.90;2252.80;;;;;;5053002;28;20476;-82
2022/12/16 01:20:35;;;;;;;;;;;230.90;2252.80;;;;;;5065370;28;20472;-82
2022/12/16 01:23:01;;;;;;;12.05;6.18;;;230.90;2252.80;;;;;;5069945;28;19904;-81
2022/12/16 01:25:27;;;;;;;9.95;5.97;;;230.90;2252.80;;;;;;5061249;28;20037;-82
2022/12/16 01:27:52;;;;;;;;;;;230.90;2252.80;;;;;;5042698;28;20032;-82
2022/12/16 01:30:19;;;;;;;11.07;6.55;;;230.90;2252.80;;;;;;5062229;28;20323;-82
2022/12/16 01:32:44;;;;;;;11.18;6.93;;;230.90;2252.80;;;;;;5064300;28;20020;-81
2022/12/16 01:35:11;;;;;;;10.23;5.80;;;230.90;2252.80;;;;;;5044581;28;20095;-83
2022/12/16 01:37:36;;;;;;;13.80;6.15;;;230.90;2252.80;;;;;;5040567;28;20033;-82
2022/12/16 01:40:02;;;;;;;9.75;5.88;;;230.90;2252.80;;;;;;5052742;28;20610;-81
2022/12/16 01:42:30;;;;;;;;;;;230.90;2252.80;;;;;;5062107;28;20021;-81
2022/12/16 01:44:56;;;;;;;9.20;5.40;;;230.90;2252.80;;;;;;5050313;28;19916;-82
2022/12/16 01:47:27;;;;;;;11.55;6.80;;;230.90;2252.80;;;;;;5045575;28;20029;-80
2022/12/16 01:50:01;;;;;;;11.05;6.03;;;230.90;2252.80;;;;;;5054334;28;20021;-83
2022/12/16 01:52:35;;;;;;;13.02;7.32;;;230.90;2252.80;;;;;;5054076;28;20020;-82
2022/12/16 01:55:12;;;;;;;11.48;6.30;;;230.90;2252.80;;;;;;5047796;28;20083;-82
2022/12/16 01:57:50;;;;;;;16.17;7.70;;;231.00;2252.80;;;;;;5035944;28;20028;-82
2022/12/16 02:00:16;;;;;;;14.73;6.70;;;231.00;2252.80;;;;;;5039900;28;20544;-82
2022/12/16 02:02:44;;;;;;;12.18;6.53;;;231.10;2252.80;;;;;;5035813;28;20112;-81
2022/12/16 02:05:22;;;;;;;11.60;6.35;;;231.20;2252.80;;;;;;5031332;28;20037;-82
2022/12/16 02:08:13;;;;;;;13.70;7.13;;;231.20;2252.80;;;;;;5036263;28;20075;-81
2022/12/16 02:10:42;;;;;;;10.15;5.43;;;231.20;2252.80;;;;;;4952821;28;20495;-82
2022/12/16 02:13:37;;;;;;;10.77;5.70;;;231.20;2252.80;;;;;;4971911;28;20030;-81
2022/12/16 02:16:35;;;;;;;11.50;5.78;;;231.20;2252.80;;;;;;4961668;28;20541;-83
2022/12/16 02:19:34;;;;;;;11.15;6.20;;;231.20;2252.80;;;;;;4905045;29;20052;-81
2022/12/16 02:22:15;;;;;;;11.75;5.47;;;231.20;2252.80;;;;;;4915297;29;20044;-81
2022/12/16 02:25:10;;;;;;;9.82;6.18;;;231.20;2252.80;;;;;;4915105;29;20029;-81
2022/12/16 02:28:05;;;;;;;11.65;6.45;;;231.20;2252.80;;;;;;4915740;29;20488;-81
2022/12/16 02:30:49;;;;;;;14.65;5.85;;;231.20;2252.80;;;;;;4841007;29;20113;-82
2022/12/16 02:33:23;;;;;;;10.68;5.45;;;231.20;2252.80;;;;;;4840892;29;20041;-82
2022/12/16 02:36:15;;;;;;;10.10;5.55;;;231.10;2252.80;;;;;;4841129;29;20034;-80
2022/12/16 02:39:00;;;;;;;9.18;4.72;;;231.10;2252.80;;;;;;4840913;29;20208;-81
2022/12/16 02:41:52;;;;;;;12.50;5.65;;;231.10;2252.80;;;;;;4825439;29;20042;-81
2022/12/16 02:44:20;;;;;;;10.95;5.05;;;231.10;2252.80;;;;;;4825495;29;20094;-82
2022/12/16 02:46:53;;;;;;;10.20;5.47;;;231.20;2252.80;;;;;;4845574;29;20052;-81
2022/12/16 02:49:22;;;;;;;8.95;5.22;;;231.20;2252.80;;;;;;4875024;29;20033;-81
2022/12/16 02:51:48;;;;;;;11.25;5.35;;;231.20;2252.80;;;;;;4885515;29;20041;-82
2022/12/16 02:54:16;;;;;;;10.82;5.25;;;231.20;2252.80;;;;;;4892156;29;20043;-80
2022/12/16 02:56:59;;;;;;;12.77;5.30;;;231.20;2252.80;;;;;;4933121;29;20063;-81
2022/12/16 02:59:39;;;;;;;10.60;6.30;;;231.20;2252.80;;;;;;4937224;29;20415;-82
2022/12/16 03:02:15;;;;;;;10.95;5.80;;;231.30;2252.80;;;;;;4952500;29;20028;-82
2022/12/16 03:05:03;;;;;;;11.55;5.15;;;231.30;2252.80;;;;;;4952773;29;20074;-81
2022/12/16 03:07:32;;;;;;;15.27;5.15;;;256.00;2252.80;;;;;;5010902;28;20029;-82
2022/12/16 03:09:59;;;;;;;12.43;5.60;;;256.20;2252.80;;;;;;5049767;28;20021;-81
2022/12/16 03:12:26;;;;;;;11.40;6.25;;;256.30;2252.80;;;;;;5038473;28;20029;-81
2022/12/16 03:14:53;;;;;;;12.80;5.80;;;256.30;2252.80;;;;;;5033693;28;20075;-81
2022/12/16 03:17:23;;;;;;;12.07;5.70;;;256.30;2252.80;;;;;;5044093;28;20036;-81
2022/12/16 03:20:04;;;;;;;12.05;5.38;;;256.30;2252.80;;;;;;5051825;28;20031;-80
2022/12/16 03:22:33;;;;;;;12.60;5.35;;;256.40;2252.80;;;;;;5051433;28;20025;-82
2022/12/16 03:24:58;;;;;;;10.50;5.35;;;256.50;2252.80;;;;;;5050640;28;20079;-81
2022/12/16 03:27:33;;;;;;;8.32;4.75;;;256.50;2252.80;;;;;;5061973;28;20041;-81
2022/12/16 03:30:07;;;;;;;11.68;6.13;;;256.50;2252.80;;;;;;5040563;28;20461;-81
2022/12/16 03:32:49;;;;;;;11.35;5.32;;;256.50;2252.80;;;;;;5040800;28;20025;-82
2022/12/16 03:35:18;;;;;;;11.35;5.82;;;256.50;2252.80;;;;;;5033870;28;20044;-80
2022/12/16 03:37:47;;;;;;;12.98;5.55;;;256.50;2252.80;;;;;;5041824;28;20059;-82
2022/12/16 03:40:13;;;;;;;9.82;4.90;;;256.50;2252.80;;;;;;5051808;28;20033;-82
2022/12/16 03:42:41;;;;;;;14.35;6.13;;;256.50;2252.80;;;;;;5045973;28;20029;-82
2022/12/16 03:45:11;;;;;;;12.35;5.60;;;256.50;2252.80;;;;;;5042869;28;20045;-81
2022/12/16 03:47:37;;;;;;;12.15;4.72;;;256.50;2252.80;;;;;;5055675;28;20076;-81
2022/12/16 03:50:03;;;;;;;9.65;4.88;;;256.60;2252.80;;;;;;5041219;28;20025;-81
2022/12/16 03:52:29;;;;;;;9.13;5.20;;;256.50;2252.80;;;;;;5056188;28;20021;-82
2022/12/16 03:54:55;;;;;;;10.13;5.88;;;256.50;2252.80;;;;;;5065983;28;20032;-80
2022/12/16 03:57:21;;;;;;;12.68;5.57;;;256.50;2252.80;;;;;;5038774;28;20465;-81
2022/12/16 03:59:47;;;;;;;10.15;4.93;;;256.50;2252.80;;;;;;5052683;28;20047;-83
2022/12/16 04:02:12;;;;;;;;;;;256.50;2252.80;;;;;;5048854;28;20021;-82
2022/12/16 04:04:38;;;;;;;9.30;5.60;;;256.50;2252.80;;;;;;5056015;28;20336;-80
2022/12/16 04:07:19;;;;;;;;;;;256.50;2252.80;;;;;;5053929;28;20021;-82
2022/12/16 04:09:45;;;;;;;8.38;4.95;;;256.50;2252.80;;;;;;5056185;28;19937;-81
2022/12/16 04:26:08;;;;;;;;;;;256.50;2252.80;;;;;;5056850;28;20099;-82
2022/12/16 04:28:34;;;;;;;9.00;5.80;;;256.60;2252.80;;;;;;5038285;28;19908;-81
2022/12/16 04:30:59;;;;;;;16.20;7.13;;;256.60;2252.80;;;;;;5046569;28;20495;-82
